createdAt,value
2019-04-16T00:00:49.713Z,1009.6
2019-04-16T00:02:01.915Z,1009.6
2019-04-16T00:03:14.170Z,1009.6
2019-04-16T00:04:26.309Z,1009.5
2019-04-16T00:05:38.488Z,1009.5
2019-04-16T00:06:50.665Z,1009.5
2019-04-16T00:08:02.889Z,1009.5
2019-04-16T00:09:14.993Z,1009.5
2019-04-16T00:10:27.334Z,1009.5
2019-04-16T00:11:39.638Z,1009.5
2019-04-16T00:12:51.729Z,1009.5
2019-04-16T00:14:03.881Z,1009.5
2019-04-16T00:15:16.067Z,1009.4
2019-04-16T00:16:28.245Z,1009.4
2019-04-16T00:17:40.462Z,1009.4
2019-04-16T00:18:52.557Z,1009.4
2019-04-16T00:20:04.897Z,1009.4
2019-04-16T00:21:17.032Z,1009.4
2019-04-16T00:22:29.221Z,1009.4
2019-04-16T00:23:41.423Z,1009.3
2019-04-16T00:24:53.621Z,1009.3
2019-04-16T00:26:05.817Z,1009.4
2019-04-16T00:27:18.003Z,1009.3
2019-04-16T00:28:30.197Z,1009.3
2019-04-16T00:29:42.436Z,1009.3
2019-04-16T00:30:54.511Z,1009.4
2019-04-16T00:32:06.798Z,1009.3
2019-04-16T00:33:18.904Z,1009.3
2019-04-16T00:34:31.219Z,1009.3
2019-04-16T00:35:43.568Z,1009.3
2019-04-16T00:36:55.647Z,1009.3
2019-04-16T00:38:07.754Z,1009.3
2019-04-16T00:39:19.976Z,1009.3
2019-04-16T00:40:32.156Z,1009.3
2019-04-16T00:41:44.353Z,1009.2
2019-04-16T00:42:56.511Z,1009.2
2019-04-16T00:44:08.826Z,1009.2
2019-04-16T00:45:20.850Z,1009.2
2019-04-16T00:46:33.185Z,1009.3
2019-04-16T00:47:45.415Z,1009.2
2019-04-16T00:48:57.526Z,1009.3
2019-04-16T00:50:09.695Z,1009.3
2019-04-16T00:51:21.874Z,1009.2
2019-04-16T00:52:34.118Z,1009.2
2019-04-16T00:53:46.307Z,1009.2
2019-04-16T00:54:58.407Z,1009.2
2019-04-16T00:56:10.684Z,1009.2
2019-04-16T00:57:22.791Z,1009.1
2019-04-16T00:58:35.128Z,1009.1
2019-04-16T00:59:47.359Z,1009.1
2019-04-16T01:00:59.498Z,1009.2
2019-04-16T01:02:11.670Z,1009.2
2019-04-16T01:03:23.904Z,1009.1
2019-04-16T01:04:36.127Z,1009.1
2019-04-16T01:05:48.351Z,1009.1
2019-04-16T01:07:00.476Z,1009.1
2019-04-16T01:08:12.654Z,1009.2
2019-04-16T01:09:24.749Z,1009.2
2019-04-16T01:10:37.042Z,1009.2
2019-04-16T01:11:49.252Z,1009.1
2019-04-16T01:13:01.446Z,1009.1
2019-04-16T01:14:13.703Z,1009.1
2019-04-16T01:15:25.819Z,1009.1
2019-04-16T01:16:38.085Z,1009
2019-04-16T01:17:50.251Z,1009.1
2019-04-16T01:19:02.320Z,1009
2019-04-16T01:20:14.742Z,1008.8
2019-04-16T01:21:26.718Z,1009.1
2019-04-16T01:22:39.001Z,1009
2019-04-16T01:23:51.317Z,1009
2019-04-16T01:25:03.387Z,1009
2019-04-16T01:26:15.561Z,1009
2019-04-16T01:27:27.866Z,1009
2019-04-16T01:28:40.010Z,1009
2019-04-16T01:29:52.229Z,1008.9
2019-04-16T01:31:04.265Z,1008.9
2019-04-16T01:32:16.552Z,1008.8
2019-04-16T01:33:28.662Z,1008.9
2019-04-16T01:34:40.963Z,1008.8
2019-04-16T01:35:53.148Z,1008.9
2019-04-16T01:37:05.430Z,1008.8
2019-04-16T01:38:17.542Z,1008.8
2019-04-16T01:39:34.819Z,1008.8
2019-04-16T01:40:41.955Z,1008.9
2019-04-16T01:41:54.257Z,1008.8
2019-04-16T01:43:06.353Z,1008.9
2019-04-16T01:44:18.560Z,1008.9
2019-04-16T01:45:30.892Z,1008.8
2019-04-16T01:46:42.987Z,1008.8
2019-04-16T01:47:55.093Z,1008.8
2019-04-16T01:49:07.305Z,1008.8
2019-04-16T01:50:19.402Z,1008.9
2019-04-16T01:51:31.683Z,1008.9
2019-04-16T01:52:43.892Z,1008.8
2019-04-16T01:53:56.127Z,1008.7
2019-04-16T01:55:08.201Z,1008.8
2019-04-16T01:56:20.466Z,1008.8
2019-04-16T01:57:32.576Z,1008.7
2019-04-16T01:58:44.853Z,1008.8
2019-04-16T01:59:57.051Z,1008.8
2019-04-16T02:01:09.223Z,1008.7
2019-04-16T02:02:21.489Z,1008.7
2019-04-16T02:03:33.642Z,1008.8
2019-04-16T02:04:45.906Z,1008.7
2019-04-16T02:05:58.115Z,1008.7
2019-04-16T02:07:10.382Z,1008.7
2019-04-16T02:08:22.390Z,1008.7
2019-04-16T02:09:34.526Z,1008.7
2019-04-16T02:10:46.805Z,1008.7
2019-04-16T02:11:59.084Z,1008.7
2019-04-16T02:13:11.221Z,1008.7
2019-04-16T02:14:23.406Z,1008.7
2019-04-16T02:15:35.590Z,1008.7
2019-04-16T02:16:47.762Z,1008.6
2019-04-16T02:18:00.076Z,1008.7
2019-04-16T02:19:12.078Z,1008.7
2019-04-16T02:20:24.571Z,1008.6
2019-04-16T02:21:36.673Z,1008.6
2019-04-16T02:22:48.762Z,1008.7
2019-04-16T02:24:00.957Z,1008.7
2019-04-16T02:25:13.169Z,1008.6
2019-04-16T02:26:25.338Z,1008.7
2019-04-16T02:27:37.555Z,1008.6
2019-04-16T02:28:49.741Z,1008.6
2019-04-16T02:30:02.155Z,1008.7
2019-04-16T02:31:14.141Z,1008.6
2019-04-16T02:32:26.358Z,1008.6
2019-04-16T02:33:38.472Z,1008.7
2019-04-16T02:34:50.842Z,1008.6
2019-04-16T02:36:03.062Z,1008.6
2019-04-16T02:38:27.372Z,1008.6
2019-04-16T02:39:39.555Z,1008.6
2019-04-16T02:40:51.706Z,1008.6
2019-04-16T02:42:03.879Z,1008.6
2019-04-16T02:43:16.113Z,1008.6
2019-04-16T02:44:28.267Z,1008.6
2019-04-16T02:45:40.397Z,1008.6
2019-04-16T02:46:52.687Z,1008.6
2019-04-16T02:48:04.953Z,1008.6
2019-04-16T02:49:17.159Z,1008.6
2019-04-16T02:50:29.260Z,1008.6
2019-04-16T02:51:41.452Z,1008.6
2019-04-16T02:52:53.631Z,1008.6
2019-04-16T02:54:05.833Z,1008.5
2019-04-16T02:55:18.042Z,1008.5
2019-04-16T02:56:30.237Z,1008.5
2019-04-16T02:57:42.365Z,1008.5
2019-04-16T02:58:54.674Z,1008.6
2019-04-16T03:00:06.942Z,1008.6
2019-04-16T03:01:19.056Z,1008.5
2019-04-16T03:02:31.123Z,1008.5
2019-04-16T03:03:43.445Z,1008.5
2019-04-16T03:04:55.592Z,1008.5
2019-04-16T03:06:07.765Z,1008.6
2019-04-16T03:07:19.903Z,1008.5
2019-04-16T03:08:32.186Z,1008.5
2019-04-16T03:09:44.288Z,1008.5
2019-04-16T03:10:56.765Z,1008.5
2019-04-16T03:12:08.780Z,1008.5
2019-04-16T03:13:21.111Z,1008.5
2019-04-16T03:14:33.069Z,1008.5
2019-04-16T03:15:45.352Z,1008.5
2019-04-16T03:16:57.598Z,1008.5
2019-04-16T03:18:09.768Z,1008.5
2019-04-16T03:19:21.885Z,1008.5
2019-04-16T03:20:34.154Z,1008.5
2019-04-16T03:21:46.325Z,1008.4
2019-04-16T03:22:58.580Z,1008.5
2019-04-16T03:24:10.744Z,1008.4
2019-04-16T03:25:23.003Z,1008.4
2019-04-16T03:26:35.029Z,1008.4
2019-04-16T03:27:47.335Z,1008.4
2019-04-16T03:28:59.523Z,1008.4
2019-04-16T03:30:11.725Z,1008.4
2019-04-16T03:31:23.893Z,1008.5
2019-04-16T03:32:36.099Z,1008.4
2019-04-16T03:33:48.232Z,1008.4
2019-04-16T03:35:00.442Z,1008.4
2019-04-16T03:36:12.716Z,1008.3
2019-04-16T03:37:24.877Z,1008.3
2019-04-16T03:38:37.109Z,1008.3
2019-04-16T03:39:49.354Z,1008.4
2019-04-16T03:41:01.473Z,1008.5
2019-04-16T03:42:13.751Z,1008.4
2019-04-16T03:43:25.758Z,1008.4
2019-04-16T03:44:38.072Z,1008.4
2019-04-16T03:45:50.312Z,1008.5
2019-04-16T03:47:02.497Z,1008.4
2019-04-16T03:48:14.635Z,1008.4
2019-04-16T03:49:26.874Z,1008.3
2019-04-16T03:50:38.944Z,1008.3
2019-04-16T03:51:51.561Z,1008.3
2019-04-16T03:53:04.130Z,1008.3
2019-04-16T03:54:15.637Z,1008.3
2019-04-16T03:55:27.730Z,1008.3
2019-04-16T03:56:40.153Z,1008.2
2019-04-16T03:57:52.141Z,1008.3
2019-04-16T03:59:04.465Z,1008.3
2019-04-16T04:00:16.665Z,1008.2
2019-04-16T04:01:28.763Z,1008.3
2019-04-16T04:02:40.882Z,1008.2
2019-04-16T04:03:53.173Z,1008.3
2019-04-16T04:05:05.411Z,1008.3
2019-04-16T04:06:17.585Z,1008.3
2019-04-16T04:07:29.702Z,1008.3
2019-04-16T04:08:42.305Z,1008.2
2019-04-16T04:09:54.045Z,1008.3
2019-04-16T04:11:06.376Z,1008.3
2019-04-16T04:12:18.498Z,1008.3
2019-04-16T04:13:30.701Z,1008.3
2019-04-16T04:14:42.913Z,1008.2
2019-04-16T04:15:55.119Z,1008.3
2019-04-16T04:17:07.362Z,1008.2
2019-04-16T04:18:19.450Z,1008.2
2019-04-16T04:19:31.563Z,1008.2
2019-04-16T04:20:43.894Z,1008.2
2019-04-16T04:21:55.958Z,1008.2
2019-04-16T04:23:08.276Z,1008.2
2019-04-16T04:24:20.454Z,1008.1
2019-04-16T04:25:32.663Z,1008.2
2019-04-16T04:26:44.874Z,1008.2
2019-04-16T04:27:57.104Z,1008.2
2019-04-16T04:29:09.197Z,1008.2
2019-04-16T04:30:21.444Z,1008.2
2019-04-16T04:31:34.050Z,1008.3
2019-04-16T04:32:45.815Z,1008.3
2019-04-16T04:33:57.914Z,1008.3
2019-04-16T04:35:10.211Z,1008.3
2019-04-16T04:36:22.488Z,1008.3
2019-04-16T04:37:34.579Z,1008.3
2019-04-16T04:38:46.784Z,1008.3
2019-04-16T04:39:58.988Z,1008.3
2019-04-16T04:41:11.143Z,1008.3
2019-04-16T04:42:23.377Z,1008.3
2019-04-16T04:43:35.526Z,1008.2
2019-04-16T04:44:47.640Z,1008.2
2019-04-16T04:45:59.881Z,1008.3
2019-04-16T04:47:12.125Z,1008.2
2019-04-16T04:48:24.482Z,1008.2
2019-04-16T04:49:36.568Z,1008.2
2019-04-16T04:50:48.720Z,1008.2
2019-04-16T04:52:00.950Z,1008.2
2019-04-16T04:53:13.125Z,1008.2
2019-04-16T04:54:25.391Z,1008.2
2019-04-16T04:55:37.384Z,1008.3
2019-04-16T04:56:49.660Z,1008.2
2019-04-16T04:58:01.924Z,1008.2
2019-04-16T04:59:14.181Z,1008.2
2019-04-16T05:00:26.254Z,1008.2
2019-04-16T05:01:38.522Z,1008.2
2019-04-16T05:02:50.599Z,1008.2
2019-04-16T05:04:02.861Z,1008.2
2019-04-16T05:05:15.048Z,1008.2
2019-04-16T05:06:27.211Z,1008.3
2019-04-16T05:07:39.473Z,1008.3
2019-04-16T05:08:51.833Z,1008.3
2019-04-16T05:10:04.012Z,1008.3
2019-04-16T05:11:16.012Z,1008.3
2019-04-16T05:12:28.213Z,1008.3
2019-04-16T05:13:40.434Z,1008.3
2019-04-16T05:14:52.499Z,1008.3
2019-04-16T05:16:04.766Z,1008.3
2019-04-16T05:17:16.954Z,1008.3
2019-04-16T05:18:29.168Z,1008.4
2019-04-16T05:19:41.270Z,1008.3
2019-04-16T05:20:53.542Z,1008.3
2019-04-16T05:22:05.713Z,1008.4
2019-04-16T05:23:17.937Z,1008.4
2019-04-16T05:24:30.134Z,1008.3
2019-04-16T05:25:42.237Z,1008.4
2019-04-16T05:26:54.457Z,1008.3
2019-04-16T05:28:06.728Z,1008.3
2019-04-16T05:29:18.844Z,1008.3
2019-04-16T05:30:31.138Z,1008.4
2019-04-16T05:31:43.278Z,1008.4
2019-04-16T05:32:55.487Z,1008.4
2019-04-16T05:34:07.615Z,1008.4
2019-04-16T05:35:19.969Z,1008.4
2019-04-16T05:36:32.609Z,1008.4
2019-04-16T05:37:44.272Z,1008.4
2019-04-16T05:38:56.420Z,1008.4
2019-04-16T05:40:08.670Z,1008.4
2019-04-16T05:41:20.755Z,1008.4
2019-04-16T05:42:33.041Z,1008.4
2019-04-16T05:43:45.245Z,1008.5
2019-04-16T05:44:57.522Z,1008.4
2019-04-16T05:46:09.636Z,1008.4
2019-04-16T05:47:22.002Z,1008.5
2019-04-16T05:48:34.005Z,1008.4
2019-04-16T05:49:49.291Z,1008.6
2019-04-16T05:50:58.426Z,1008.5
2019-04-16T05:52:10.640Z,1008.5
2019-04-16T05:53:22.709Z,1008.5
2019-04-16T05:54:34.970Z,1008.6
2019-04-16T05:55:47.091Z,1008.4
2019-04-16T05:56:59.489Z,1008.5
2019-04-16T05:58:11.484Z,1008.5
2019-04-16T05:59:23.744Z,1008.5
2019-04-16T06:00:36.156Z,1008.5
2019-04-16T06:01:48.151Z,1008.5
2019-04-16T06:03:00.238Z,1008.5
2019-04-16T06:04:12.526Z,1008.5
2019-04-16T06:05:24.641Z,1008.5
2019-04-16T06:06:37.495Z,1008.5
2019-04-16T06:07:51.014Z,1008.5
2019-04-16T06:09:01.304Z,1008.5
2019-04-16T06:10:13.499Z,1008.6
2019-04-16T06:11:25.696Z,1008.6
2019-04-16T06:12:37.895Z,1008.5
2019-04-16T06:13:50.098Z,1008.6
2019-04-16T06:15:02.169Z,1008.7
2019-04-16T06:16:14.467Z,1008.6
2019-04-16T06:17:26.610Z,1008.6
2019-04-16T06:18:38.869Z,1008.7
2019-04-16T06:19:50.946Z,1008.6
2019-04-16T06:21:03.258Z,1008.6
2019-04-16T06:22:15.334Z,1008.7
2019-04-16T06:23:27.637Z,1008.7
2019-04-16T06:24:39.902Z,1008.7
2019-04-16T06:27:04.123Z,1008.7
2019-04-16T06:28:16.435Z,1008.7
2019-04-16T06:29:28.527Z,1008.6
2019-04-16T06:30:40.935Z,1008.8
2019-04-16T06:31:52.905Z,1008.7
2019-04-16T06:33:05.084Z,1008.7
2019-04-16T06:34:17.282Z,1008.6
2019-04-16T06:35:29.662Z,1008.7
2019-04-16T06:36:41.779Z,1008.6
2019-04-16T06:37:54.001Z,1008.7
2019-04-16T06:39:06.165Z,1008.7
2019-04-16T06:40:18.521Z,1008.7
2019-04-16T06:41:30.518Z,1008.7
2019-04-16T06:42:42.721Z,1008.7
2019-04-16T06:43:54.915Z,1008.7
2019-04-16T06:45:07.127Z,1008.7
2019-04-16T06:46:19.212Z,1008.7
2019-04-16T06:47:31.493Z,1008.7
2019-04-16T06:48:43.737Z,1008.7
2019-04-16T06:49:55.868Z,1008.6
2019-04-16T06:51:08.025Z,1008.7
2019-04-16T06:52:20.380Z,1008.6
2019-04-16T06:53:32.451Z,1008.7
2019-04-16T06:54:44.674Z,1008.6
2019-04-16T06:55:56.865Z,1008.6
2019-04-16T06:57:09.125Z,1008.6
2019-04-16T06:58:21.136Z,1008.6
2019-04-16T06:59:33.437Z,1008.6
2019-04-16T07:00:45.657Z,1008.6
2019-04-16T07:01:57.853Z,1008.5
2019-04-16T07:03:09.998Z,1008.5
2019-04-16T07:04:22.240Z,1008.5
2019-04-16T07:05:34.313Z,1008.5
2019-04-16T07:06:46.648Z,1008.4
2019-04-16T07:07:58.696Z,1008.5
2019-04-16T07:09:11.057Z,1008.4
2019-04-16T07:10:23.094Z,1008.4
2019-04-16T07:11:35.332Z,1008.4
2019-04-16T07:12:47.631Z,1008.3
2019-04-16T07:13:59.861Z,1008.4
2019-04-16T07:15:11.857Z,1008.3
2019-04-16T07:16:24.175Z,1008.3
2019-04-16T07:17:36.310Z,1008.3
2019-04-16T07:18:48.575Z,1008.3
2019-04-16T07:20:00.647Z,1008.3
2019-04-16T07:21:12.912Z,1008.4
2019-04-16T07:22:25.025Z,1008.3
2019-04-16T07:23:37.299Z,1008.5
2019-04-16T07:24:49.595Z,1008.4
2019-04-16T07:26:01.695Z,1008.3
2019-04-16T07:27:13.867Z,1008.3
2019-04-16T07:28:26.092Z,1008.4
2019-04-16T07:29:38.168Z,1008.3
2019-04-16T07:30:50.610Z,1008.3
2019-04-16T07:32:02.604Z,1008.3
2019-04-16T07:33:14.951Z,1008.3
2019-04-16T07:34:26.946Z,1008.3
2019-04-16T07:35:39.288Z,1008.3
2019-04-16T07:36:52.231Z,1008.3
2019-04-16T07:38:03.631Z,1008.3
2019-04-16T07:39:15.777Z,1008.2
2019-04-16T07:40:27.968Z,1008.3
2019-04-16T07:41:40.166Z,1008.3
2019-04-16T07:42:52.393Z,1008.3
2019-04-16T07:44:04.557Z,1008.3
2019-04-16T07:45:16.789Z,1008.3
2019-04-16T07:46:28.889Z,1008.3
2019-04-16T07:47:41.185Z,1008.3
2019-04-16T07:48:53.400Z,1008.3
2019-04-16T07:50:05.599Z,1008.4
2019-04-16T07:51:17.659Z,1008.3
2019-04-16T07:52:29.983Z,1008.3
2019-04-16T07:53:42.134Z,1008.3
2019-04-16T07:54:54.244Z,1008.4
2019-04-16T07:56:06.512Z,1008.4
2019-04-16T07:57:18.747Z,1008.4
2019-04-16T07:58:30.944Z,1008.4
2019-04-16T07:59:43.125Z,1008.4
2019-04-16T08:00:55.374Z,1008.4
2019-04-16T08:02:07.409Z,1008.3
2019-04-16T08:03:19.694Z,1008.4
2019-04-16T08:04:31.818Z,1008.4
2019-04-16T08:05:44.033Z,1008.5
2019-04-16T08:06:56.869Z,1008.4
2019-04-16T08:08:08.401Z,1008.4
2019-04-16T08:09:20.658Z,1008.4
2019-04-16T08:10:32.759Z,1008.5
2019-04-16T08:11:45.179Z,1008.4
2019-04-16T08:12:57.279Z,1008.4
2019-04-16T08:14:09.485Z,1008.4
2019-04-16T08:15:21.561Z,1008.4
2019-04-16T08:16:33.833Z,1008.3
2019-04-16T08:17:45.928Z,1008.4
2019-04-16T08:18:58.288Z,1008.5
2019-04-16T08:20:10.304Z,1008.5
2019-04-16T08:21:22.688Z,1008.4
2019-04-16T08:22:34.697Z,1008.4
2019-04-16T08:23:47.088Z,1008.3
2019-04-16T08:24:59.184Z,1008.4
2019-04-16T08:26:11.405Z,1008.4
2019-04-16T08:27:23.568Z,1008.4
2019-04-16T08:28:35.755Z,1008.4
2019-04-16T08:29:47.872Z,1008.4
2019-04-16T08:31:00.166Z,1008.4
2019-04-16T08:32:12.260Z,1008.4
2019-04-16T08:33:24.541Z,1008.5
2019-04-16T08:34:36.992Z,1008.4
2019-04-16T08:35:48.836Z,1008.4
2019-04-16T08:37:01.146Z,1008.5
2019-04-16T08:38:13.453Z,1008.5
2019-04-16T08:39:25.520Z,1008.5
2019-04-16T08:40:37.740Z,1008.3
2019-04-16T08:41:49.898Z,1008.5
2019-04-16T08:43:02.110Z,1008.3
2019-04-16T08:44:14.185Z,1008.3
2019-04-16T08:45:26.583Z,1008.2
2019-04-16T08:46:38.586Z,1008.3
2019-04-16T08:47:50.859Z,1008.3
2019-04-16T08:49:03.198Z,1008.2
2019-04-16T08:50:15.252Z,1008.3
2019-04-16T08:51:27.512Z,1008.5
2019-04-16T08:52:39.663Z,1008.2
2019-04-16T08:53:51.816Z,1008.3
2019-04-16T08:55:04.126Z,1008.2
2019-04-16T08:56:16.138Z,1008.3
2019-04-16T08:57:28.457Z,1008.3
2019-04-16T08:58:40.516Z,1008.4
2019-04-16T08:59:52.792Z,1008.3
2019-04-16T09:01:05.019Z,1008.1
2019-04-16T09:02:17.186Z,1008.5
2019-04-16T09:03:29.369Z,1008.3
2019-04-16T09:04:41.696Z,1008.4
2019-04-16T09:05:53.663Z,1008.3
2019-04-16T09:07:07.157Z,1008.3
2019-04-16T09:08:18.115Z,1008.2
2019-04-16T09:09:30.488Z,1008.3
2019-04-16T09:10:42.489Z,1008.4
2019-04-16T09:11:54.878Z,1008.3
2019-04-16T09:13:06.948Z,1008.3
2019-04-16T09:14:19.132Z,1008.2
2019-04-16T09:15:31.225Z,1008.3
2019-04-16T09:16:43.542Z,1008.2
2019-04-16T09:17:55.604Z,1008.2
2019-04-16T09:19:07.894Z,1008.3
2019-04-16T09:20:20.253Z,1008.2
2019-04-16T09:21:32.302Z,1008.2
2019-04-16T09:22:44.430Z,1008.2
2019-04-16T09:23:56.681Z,1008.2
2019-04-16T09:25:08.888Z,1008.3
2019-04-16T09:26:21.064Z,1008.2
2019-04-16T09:27:33.174Z,1008.2
2019-04-16T09:28:45.552Z,1008.3
2019-04-16T09:29:57.579Z,1008.4
2019-04-16T09:31:10.154Z,1008.2
2019-04-16T09:32:21.940Z,1008.3
2019-04-16T09:33:34.231Z,1008.2
2019-04-16T09:34:46.378Z,1008.1
2019-04-16T09:35:58.633Z,1008.2
2019-04-16T09:37:11.302Z,1008.2
2019-04-16T09:38:22.983Z,1008.3
2019-04-16T09:39:35.099Z,1008.2
2019-04-16T09:40:47.402Z,1008.2
2019-04-16T09:41:59.573Z,1008.1
2019-04-16T09:43:11.696Z,1008.3
2019-04-16T09:44:23.879Z,1008.2
2019-04-16T09:45:36.192Z,1008.1
2019-04-16T09:46:48.308Z,1008.1
2019-04-16T09:48:00.578Z,1008.1
2019-04-16T09:49:12.748Z,1008.2
2019-04-16T09:50:24.951Z,1008
2019-04-16T09:51:37.058Z,1008.2
2019-04-16T09:52:49.356Z,1008.1
2019-04-16T09:54:01.551Z,1008
2019-04-16T09:55:13.823Z,1008.1
2019-04-16T09:56:25.829Z,1008.1
2019-04-16T09:57:38.096Z,1008.2
2019-04-16T09:58:50.294Z,1008
2019-04-16T10:00:03.925Z,1007.9
2019-04-16T10:01:14.693Z,1008
2019-04-16T10:02:26.886Z,1008
2019-04-16T10:03:39.104Z,1007.8
2019-04-16T10:04:51.285Z,1007.9
2019-04-16T10:06:03.490Z,1008.1
2019-04-16T10:07:15.686Z,1008
2019-04-16T10:08:27.752Z,1008.1
2019-04-16T10:09:40.086Z,1008
2019-04-16T10:10:52.165Z,1008
2019-04-16T10:12:04.410Z,1007.9
2019-04-16T10:13:16.734Z,1008
2019-04-16T10:14:28.832Z,1007.9
2019-04-16T10:15:40.936Z,1008
2019-04-16T10:16:53.143Z,1008
2019-04-16T10:18:05.475Z,1008
2019-04-16T10:19:19.412Z,1008.2
2019-04-16T10:20:32.623Z,1007.9
2019-04-16T10:21:42.012Z,1007.9
2019-04-16T10:22:54.090Z,1008
2019-04-16T10:24:06.312Z,1007.9
2019-04-16T10:25:18.586Z,1008
2019-04-16T10:26:30.762Z,1008
2019-04-16T10:27:42.950Z,1008
2019-04-16T10:28:55.203Z,1007.9
2019-04-16T10:30:07.290Z,1007.9
2019-04-16T10:31:19.558Z,1008
2019-04-16T10:32:31.632Z,1007.9
2019-04-16T10:33:43.825Z,1007.8
2019-04-16T10:34:56.064Z,1007.9
2019-04-16T10:36:08.288Z,1008
2019-04-16T10:37:20.558Z,1008
2019-04-16T10:38:32.709Z,1007.8
2019-04-16T10:39:44.790Z,1007.8
2019-04-16T10:40:57.141Z,1007.8
2019-04-16T10:42:10.116Z,1007.9
2019-04-16T10:43:21.675Z,1008
2019-04-16T10:44:33.589Z,1007.8
2019-04-16T10:45:45.883Z,1008
2019-04-16T10:46:58.014Z,1007.8
2019-04-16T10:48:10.256Z,1007.7
2019-04-16T10:49:22.476Z,1007.7
2019-04-16T10:50:37.535Z,1007.9
2019-04-16T10:51:46.776Z,1007.8
2019-04-16T10:52:59.242Z,1007.6
2019-04-16T10:54:11.135Z,1007.6
2019-04-16T10:55:23.495Z,1007.6
2019-04-16T10:56:35.523Z,1007.8
2019-04-16T10:57:47.704Z,1007.8
2019-04-16T10:59:01.176Z,1007.7
2019-04-16T11:00:12.179Z,1007.6
2019-04-16T11:01:24.391Z,1007.6
2019-04-16T11:02:36.838Z,1007.6
2019-04-16T11:03:48.707Z,1007.6
2019-04-16T11:05:01.048Z,1007.6
2019-04-16T11:06:13.069Z,1007.7
2019-04-16T11:07:25.350Z,1007.7
2019-04-16T11:08:37.559Z,1007.6
2019-04-16T11:09:49.837Z,1007.5
2019-04-16T11:11:01.861Z,1007.9
2019-04-16T11:12:14.033Z,1007.7
2019-04-16T11:13:26.413Z,1007.6
2019-04-16T11:14:38.538Z,1007.5
2019-04-16T11:15:50.791Z,1007.6
2019-04-16T11:17:02.902Z,1007.5
2019-04-16T11:18:15.079Z,1007.6
2019-04-16T11:19:27.342Z,1007.5
2019-04-16T11:20:39.453Z,1007.5
2019-04-16T11:21:51.760Z,1007.5
2019-04-16T11:23:03.861Z,1007.7
2019-04-16T11:24:16.072Z,1007.7
2019-04-16T11:25:28.292Z,1007.7
2019-04-16T11:26:40.545Z,1007.6
2019-04-16T11:27:52.628Z,1007.8
2019-04-16T11:29:04.869Z,1007.6
2019-04-16T11:30:17.005Z,1007.7
2019-04-16T11:31:29.242Z,1007.6
2019-04-16T11:32:41.425Z,1007.4
2019-04-16T11:33:53.657Z,1007.6
2019-04-16T11:35:05.916Z,1007.3
2019-04-16T11:36:18.016Z,1007.1
2019-04-16T11:37:30.552Z,1007
2019-04-16T11:38:47.023Z,1007.1
2019-04-16T11:39:54.935Z,1007.5
2019-04-16T11:41:07.123Z,1007.1
2019-04-16T11:42:18.979Z,1007.4
2019-04-16T11:43:31.177Z,1007
2019-04-16T11:44:43.274Z,1007.2
2019-04-16T11:45:55.583Z,1007.2
2019-04-16T11:47:07.756Z,1007.2
2019-04-16T11:48:19.936Z,1007
2019-04-16T11:49:32.189Z,1007
2019-04-16T11:50:44.331Z,1007
2019-04-16T11:51:56.472Z,1006.9
2019-04-16T11:53:08.828Z,1006.9
2019-04-16T11:54:20.960Z,1006.9
2019-04-16T11:55:33.102Z,1006.9
2019-04-16T11:56:45.354Z,1006.9
2019-04-16T11:57:57.595Z,1006.9
2019-04-16T11:59:09.618Z,1007
2019-04-16T12:00:21.976Z,1007
2019-04-16T12:01:34.129Z,1007
2019-04-16T12:02:46.282Z,1007
2019-04-16T12:03:58.402Z,1007
2019-04-16T12:05:10.681Z,1007
2019-04-16T12:06:23.140Z,1007
2019-04-16T12:07:35.041Z,1007
2019-04-16T12:08:47.145Z,1007.1
2019-04-16T12:09:59.440Z,1007
2019-04-16T12:11:11.553Z,1007
2019-04-16T12:12:23.848Z,1007
2019-04-16T12:13:36.006Z,1006.9
2019-04-16T12:14:48.211Z,1007.2
2019-04-16T12:16:00.414Z,1007
2019-04-16T12:17:12.878Z,1007
2019-04-16T12:18:24.767Z,1007.2
2019-04-16T12:19:37.043Z,1007.1
2019-04-16T12:20:49.078Z,1007.1
2019-04-16T12:22:01.398Z,1007
2019-04-16T12:23:13.459Z,1007.2
2019-04-16T12:24:25.764Z,1007.1
2019-04-16T12:25:37.937Z,1007.1
2019-04-16T12:26:50.325Z,1007.1
2019-04-16T12:28:02.264Z,1007.1
2019-04-16T12:29:14.610Z,1007.1
2019-04-16T12:30:26.707Z,1007
2019-04-16T12:31:39.007Z,1007.1
2019-04-16T12:32:51.022Z,1007.1
2019-04-16T12:34:03.298Z,1007.1
2019-04-16T12:35:15.410Z,1007.1
2019-04-16T12:36:27.628Z,1007.1
2019-04-16T12:37:39.936Z,1007.1
2019-04-16T12:38:52.152Z,1007.2
2019-04-16T12:40:04.194Z,1007.2
2019-04-16T12:41:16.501Z,1007.2
2019-04-16T12:42:28.652Z,1007.1
2019-04-16T12:43:41.129Z,1007.2
2019-04-16T12:44:52.948Z,1007.2
2019-04-16T12:46:05.315Z,1007.2
2019-04-16T12:47:17.409Z,1007.2
2019-04-16T12:48:29.671Z,1007.1
2019-04-16T12:49:41.823Z,1007.1
2019-04-16T12:50:54.021Z,1007.1
2019-04-16T12:52:06.113Z,1007.3
2019-04-16T12:53:18.403Z,1007.1
2019-04-16T12:54:30.608Z,1007.3
2019-04-16T12:55:42.938Z,1007
2019-04-16T12:56:54.964Z,1007.2
2019-04-16T12:58:07.190Z,1007.1
2019-04-16T12:59:19.277Z,1007.1
2019-04-16T13:00:31.629Z,1007.1
2019-04-16T13:01:43.747Z,1007.1
2019-04-16T13:02:56.067Z,1007.1
2019-04-16T13:04:08.117Z,1007.1
2019-04-16T13:05:20.437Z,1007
2019-04-16T13:06:33.054Z,1007.1
2019-04-16T13:07:44.725Z,1007.1
2019-04-16T13:08:56.913Z,1007
2019-04-16T13:10:09.141Z,1007.1
2019-04-16T13:11:21.264Z,1006.9
2019-04-16T13:12:33.494Z,1006.9
2019-04-16T13:13:45.748Z,1007
2019-04-16T13:14:57.967Z,1007.1
2019-04-16T13:16:10.004Z,1007.1
2019-04-16T13:17:22.358Z,1007.1
2019-04-16T13:18:34.483Z,1007.2
2019-04-16T13:19:46.717Z,1007
2019-04-16T13:20:58.834Z,1007
2019-04-16T13:22:11.109Z,1007.1
2019-04-16T13:23:23.155Z,1007.2
2019-04-16T13:24:35.526Z,1007
2019-04-16T13:25:47.670Z,1007.2
2019-04-16T13:26:59.833Z,1007.1
2019-04-16T13:28:12.092Z,1007
2019-04-16T13:29:24.230Z,1007.1
2019-04-16T13:30:36.439Z,1007
2019-04-16T13:31:48.589Z,1006.9
2019-04-16T13:33:00.742Z,1006.9
2019-04-16T13:34:13.089Z,1007
2019-04-16T13:35:25.087Z,1006.9
2019-04-16T13:36:37.534Z,1006.9
2019-04-16T13:37:49.648Z,1006.8
2019-04-16T13:39:01.771Z,1006.9
2019-04-16T13:40:13.993Z,1007
2019-04-16T13:41:26.164Z,1006.8
2019-04-16T13:42:38.318Z,1006.9
2019-04-16T13:43:50.571Z,1007.1
2019-04-16T13:45:02.650Z,1007
2019-04-16T13:46:14.934Z,1007
2019-04-16T13:47:27.031Z,1006.9
2019-04-16T13:48:39.304Z,1006.9
2019-04-16T13:49:51.558Z,1006.8
2019-04-16T13:51:03.706Z,1006.9
2019-04-16T13:52:15.839Z,1006.9
2019-04-16T13:53:28.146Z,1006.8
2019-04-16T13:54:40.303Z,1006.7
2019-04-16T13:55:52.592Z,1006.8
2019-04-16T13:57:04.589Z,1006.8
2019-04-16T13:58:17.227Z,1006.7
2019-04-16T13:59:29.061Z,1006.7
2019-04-16T14:00:41.292Z,1006.7
2019-04-16T14:01:53.498Z,1006.7
2019-04-16T14:03:05.908Z,1006.7
2019-04-16T14:04:17.815Z,1006.8
2019-04-16T14:05:30.058Z,1006.7
2019-04-16T14:06:42.581Z,1006.7
2019-04-16T14:07:54.513Z,1006.6
2019-04-16T14:09:06.585Z,1006.7
2019-04-16T14:10:18.855Z,1006.7
2019-04-16T14:11:31.048Z,1006.7
2019-04-16T14:12:43.216Z,1006.6
2019-04-16T14:13:55.484Z,1006.7
2019-04-16T14:15:07.613Z,1006.6
2019-04-16T14:16:19.818Z,1006.6
2019-04-16T14:17:32.063Z,1006.6
2019-04-16T14:18:44.233Z,1006.6
2019-04-16T14:19:56.417Z,1006.6
2019-04-16T14:21:08.542Z,1006.6
2019-04-16T14:22:20.786Z,1006.6
2019-04-16T14:23:32.882Z,1006.7
2019-04-16T14:24:45.170Z,1006.7
2019-04-16T14:25:57.369Z,1006.7
2019-04-16T14:27:09.567Z,1006.7
2019-04-16T14:28:21.764Z,1006.7
2019-04-16T14:29:34.079Z,1006.6
2019-04-16T14:30:46.158Z,1006.6
2019-04-16T14:31:58.401Z,1006.6
2019-04-16T14:33:10.549Z,1006.7
2019-04-16T14:34:22.737Z,1006.7
2019-04-16T14:35:34.839Z,1006.6
2019-04-16T14:36:47.480Z,1006.7
2019-04-16T14:37:59.414Z,1006.6
2019-04-16T14:39:11.494Z,1006.7
2019-04-16T14:40:23.791Z,1006.7
2019-04-16T14:41:35.986Z,1006.6
2019-04-16T14:42:48.116Z,1006.7
2019-04-16T14:44:00.296Z,1006.7
2019-04-16T14:45:12.425Z,1006.6
2019-04-16T14:46:24.690Z,1006.6
2019-04-16T14:47:36.816Z,1006.9
2019-04-16T14:48:49.072Z,1006.5
2019-04-16T14:50:01.293Z,1006.6
2019-04-16T14:51:13.461Z,1006.7
2019-04-16T14:52:25.649Z,1006.7
2019-04-16T14:53:37.848Z,1006.6
2019-04-16T14:54:50.046Z,1006.6
2019-04-16T14:56:02.252Z,1006.7
2019-04-16T14:57:14.331Z,1006.7
2019-04-16T14:58:26.744Z,1006.6
2019-04-16T14:59:38.733Z,1006.6
2019-04-16T15:00:51.115Z,1006.6
2019-04-16T15:02:03.255Z,1006.6
2019-04-16T15:03:15.421Z,1006.6
2019-04-16T15:04:27.608Z,1006.8
2019-04-16T15:05:39.802Z,1006.5
2019-04-16T15:06:52.403Z,1006.7
2019-04-16T15:08:04.254Z,1006.8